MET8601 - McGuire AFB to Boston

Boeing 757-200W
773MU - Charter
0 hrs 55 mins
215 nm
Ferry - Daily

Departure

Departing from
McGuire AFB (WRI)
Departure gate
Ramp
Scheduled Departure
GMT 2155
Local 1755
METAR KWRI 232258Z AUTO 29004KT 10SM CLR 26/15 A3000 RMK AO2 SLP158 T02600148
TAF TAF KWRI 231800Z 2318/2424 35009KT 9999 FEW050 QNH2996INS BECMG 2322/2323 35006KT 9999 SKC QNH2997INS TX29/2318Z TN17/2410Z

Route Map

Planning Resources

PTPL5 SHLEP HTO ORW7
RBV HFD PUT KBOS
Route:
OFP Layout:
Units:
Detailed Navlog:
ETOPS Planning:
Plan Stepclimbs:
Runway Analysis:
Include NOTAMS:
FIR NOTAMS:
Flight Maps:

Popularity

Hub Current Bids PiReps this month Total PiReps
KMCI 0 0 1
KLAX 0 0 1
KBOS 0 0 1